createdAt,value
2016-09-20T00:00:21.684Z,85.03
2016-09-20T00:01:02.229Z,84.84
2016-09-20T00:01:42.772Z,85.13
2016-09-20T00:02:23.313Z,85.22
2016-09-20T00:03:03.855Z,85.22
2016-09-20T00:03:44.396Z,85.51
2016-09-20T00:04:24.931Z,85.22
2016-09-20T00:05:05.469Z,85.61
2016-09-20T00:05:46.013Z,85.61
2016-09-20T00:06:26.554Z,85.71
2016-09-20T00:07:07.101Z,85.61
2016-09-20T00:07:47.647Z,85.61
2016-09-20T00:08:28.188Z,85.71
2016-09-20T00:09:08.729Z,85.03
2016-09-20T00:09:49.274Z,85.41
2016-09-20T00:10:29.818Z,85.51
2016-09-20T00:11:10.364Z,85.41
2016-09-20T00:11:50.906Z,85.03
2016-09-20T00:12:31.444Z,84.84
2016-09-20T00:13:11.988Z,85.22
2016-09-20T00:13:52.528Z,85.22
2016-09-20T00:14:33.072Z,85.22
2016-09-20T00:15:13.615Z,85.89
2016-09-20T00:15:54.159Z,84.94
2016-09-20T00:16:34.703Z,85.13
2016-09-20T00:17:15.245Z,85.13
2016-09-20T00:17:55.793Z,85.13
2016-09-20T00:18:36.337Z,85.22
2016-09-20T00:19:16.880Z,85.13
2016-09-20T00:19:57.413Z,85.22
2016-09-20T00:20:37.959Z,85.22
2016-09-20T00:21:18.503Z,85.41
2016-09-20T00:21:59.040Z,85.51
2016-09-20T00:22:39.581Z,85.71
2016-09-20T00:23:20.121Z,85.41
2016-09-20T00:24:00.664Z,85.71
2016-09-20T00:24:41.207Z,85.51
2016-09-20T00:25:21.753Z,85.71
2016-09-20T00:26:02.296Z,85.61
2016-09-20T00:26:42.842Z,85.89
2016-09-20T00:27:23.385Z,85.89
2016-09-20T00:28:03.921Z,86.08
2016-09-20T00:28:44.466Z,86.08
2016-09-20T00:29:25.006Z,86.28
2016-09-20T00:30:05.543Z,85.99
2016-09-20T00:30:46.093Z,85.99
2016-09-20T00:31:26.628Z,85.99
2016-09-20T00:32:07.172Z,85.99
2016-09-20T00:32:47.719Z,85.89
2016-09-20T00:33:28.261Z,85.89
2016-09-20T00:34:08.803Z,85.99
2016-09-20T00:34:49.350Z,85.8
2016-09-20T00:35:29.892Z,86.47
2016-09-20T00:36:10.439Z,86.37
2016-09-20T00:36:50.973Z,86.08
2016-09-20T00:37:31.508Z,86.37
2016-09-20T00:38:12.053Z,85.89
2016-09-20T00:38:52.588Z,85.99
2016-09-20T00:39:33.132Z,86.08
2016-09-20T00:40:13.679Z,86.18
2016-09-20T00:40:54.224Z,86.28
2016-09-20T00:41:34.770Z,86.37
2016-09-20T00:42:15.317Z,86.18
2016-09-20T00:42:55.859Z,86.18
2016-09-20T00:43:36.404Z,86.28
2016-09-20T00:44:16.935Z,85.99
2016-09-20T00:44:57.484Z,85.99
2016-09-20T00:45:38.028Z,86.94
2016-09-20T00:46:18.559Z,86.76
2016-09-20T00:46:59.107Z,86.66
2016-09-20T00:47:39.649Z,86.85
2016-09-20T00:48:20.191Z,87.04
2016-09-20T00:49:00.738Z,86.66
2016-09-20T00:49:41.280Z,86.94
2016-09-20T00:50:21.812Z,86.76
2016-09-20T00:51:02.357Z,86.76
2016-09-20T00:51:42.889Z,86.94
2016-09-20T00:52:23.426Z,86.85
2016-09-20T00:53:03.963Z,86.76
2016-09-20T00:53:44.512Z,86.85
2016-09-20T00:54:25.047Z,86.85
2016-09-20T00:55:05.592Z,86.76
2016-09-20T00:55:46.139Z,86.76
2016-09-20T00:56:26.687Z,87.04
2016-09-20T00:57:07.247Z,86.76
2016-09-20T00:57:47.796Z,86.47
2016-09-20T00:58:28.341Z,86.47
2016-09-20T00:59:08.887Z,86.66
2016-09-20T00:59:49.435Z,86.66
2016-09-20T01:00:29.980Z,86.85
2016-09-20T01:01:10.526Z,86.66
2016-09-20T01:01:51.071Z,86.66
2016-09-20T01:02:31.615Z,86.66
2016-09-20T01:03:12.161Z,86.57
2016-09-20T01:03:52.705Z,87.14
2016-09-20T01:04:33.237Z,87.23
2016-09-20T01:05:13.775Z,87.43
2016-09-20T01:05:54.324Z,87.04
2016-09-20T01:06:34.858Z,87.23
2016-09-20T01:07:15.406Z,87.04
2016-09-20T01:07:55.956Z,87.14
2016-09-20T01:08:36.513Z,87.14
2016-09-20T01:09:17.046Z,87.23
2016-09-20T01:09:57.589Z,87.04
2016-09-20T01:10:38.132Z,86.94
2016-09-20T01:11:18.675Z,86.85
2016-09-20T01:11:59.215Z,86.94
2016-09-20T01:12:39.756Z,86.94
2016-09-20T01:13:20.298Z,87.04
2016-09-20T01:14:00.835Z,87.23
2016-09-20T01:14:41.379Z,87.23
2016-09-20T01:15:21.921Z,87.23
2016-09-20T01:16:02.468Z,86.76
2016-09-20T01:16:43.016Z,86.85
2016-09-20T01:17:23.559Z,87.43
2016-09-20T01:18:04.114Z,87.43
2016-09-20T01:18:44.657Z,87.33
2016-09-20T01:19:25.195Z,87.52
2016-09-20T01:20:05.740Z,87.33
2016-09-20T01:20:46.287Z,87.33
2016-09-20T01:21:26.822Z,87.43
2016-09-20T01:22:07.363Z,87.33
2016-09-20T01:22:47.900Z,87.33
2016-09-20T01:23:28.443Z,87.52
2016-09-20T01:24:08.987Z,87.33
2016-09-20T01:24:49.527Z,87.52
2016-09-20T01:25:30.076Z,87.43
2016-09-20T01:26:10.624Z,87.33
2016-09-20T01:26:51.166Z,87.23
2016-09-20T01:27:31.716Z,87.43
2016-09-20T01:28:12.265Z,87.52
2016-09-20T01:28:52.809Z,87.52
2016-09-20T01:29:33.349Z,87.9
2016-09-20T01:30:13.894Z,87.52
2016-09-20T01:30:54.433Z,87.62
2016-09-20T01:31:34.976Z,87.9
2016-09-20T01:32:15.518Z,87.62
2016-09-20T01:32:56.057Z,87.62
2016-09-20T01:33:36.605Z,87.62
2016-09-20T01:34:17.155Z,87.9
2016-09-20T01:34:57.714Z,87.9
2016-09-20T01:35:38.248Z,87.33
2016-09-20T01:36:18.797Z,87.81
2016-09-20T01:36:59.337Z,87.52
2016-09-20T01:37:39.875Z,87.71
2016-09-20T01:38:20.416Z,87.52
2016-09-20T01:39:00.962Z,87.81
2016-09-20T01:39:41.485Z,87.81
2016-09-20T01:40:22.013Z,87.52
2016-09-20T01:41:02.569Z,87.52
2016-09-20T01:41:43.101Z,87.71
2016-09-20T01:42:23.645Z,88
2016-09-20T01:43:04.193Z,88
2016-09-20T01:43:44.736Z,88
2016-09-20T01:44:25.286Z,87.71
2016-09-20T01:45:05.832Z,88
2016-09-20T01:45:46.384Z,88.09
2016-09-20T01:46:26.934Z,87.52
2016-09-20T01:47:07.476Z,87.71
2016-09-20T01:47:48.018Z,87.71
2016-09-20T01:48:28.564Z,87.81
2016-09-20T01:49:09.099Z,87.43
2016-09-20T01:49:49.646Z,87.52
2016-09-20T01:50:30.191Z,87.62
2016-09-20T01:51:10.723Z,87.81
2016-09-20T01:51:51.272Z,88
2016-09-20T01:52:31.813Z,88.48
2016-09-20T01:53:12.356Z,88.38
2016-09-20T01:53:52.904Z,88.19
2016-09-20T01:54:33.449Z,88.48
2016-09-20T01:55:13.995Z,88.48
2016-09-20T01:55:54.533Z,88.19
2016-09-20T01:56:35.082Z,88.38
2016-09-20T01:57:15.625Z,88.19
2016-09-20T01:57:56.171Z,87.62
2016-09-20T01:58:36.705Z,87.71
2016-09-20T01:59:17.254Z,87.62
2016-09-20T01:59:57.802Z,87.52
2016-09-20T02:00:38.345Z,87.81
2016-09-20T02:01:18.885Z,88
2016-09-20T02:01:59.432Z,87.81
2016-09-20T02:02:39.976Z,87.71
2016-09-20T02:03:20.514Z,87.81
2016-09-20T02:04:01.057Z,87.62
2016-09-20T02:04:41.623Z,87.9
2016-09-20T02:05:22.166Z,87.04
2016-09-20T02:06:02.716Z,87.81
2016-09-20T02:06:43.259Z,87.33
2016-09-20T02:07:23.799Z,87.23
2016-09-20T02:08:04.345Z,87.04
2016-09-20T02:08:44.862Z,86.94
2016-09-20T02:09:25.407Z,86.76
2016-09-20T02:10:05.962Z,87.23
2016-09-20T02:10:46.506Z,87.23
2016-09-20T02:11:27.041Z,87.23
2016-09-20T02:12:07.590Z,87.23
2016-09-20T02:12:48.132Z,86.76
2016-09-20T02:13:28.675Z,87.14
2016-09-20T02:14:09.223Z,86.76
2016-09-20T02:14:49.767Z,86.94
2016-09-20T02:15:30.318Z,86.94
2016-09-20T02:16:10.868Z,87.04
2016-09-20T02:16:51.416Z,87.33
2016-09-20T02:17:31.966Z,87.23
2016-09-20T02:18:12.516Z,87.23
2016-09-20T02:18:53.061Z,87.23
2016-09-20T02:19:33.606Z,87.04
2016-09-20T02:20:14.151Z,87.43
2016-09-20T02:20:54.700Z,87.33
2016-09-20T02:21:35.246Z,87.52
2016-09-20T02:22:15.789Z,87.52
2016-09-20T02:22:56.328Z,87.23
2016-09-20T02:23:36.876Z,87.43
2016-09-20T02:24:17.417Z,87.33
2016-09-20T02:24:57.958Z,87.43
2016-09-20T02:25:38.507Z,87.52
2016-09-20T02:26:19.047Z,87.33
2016-09-20T02:26:59.592Z,87.33
2016-09-20T02:27:40.139Z,87.9
2016-09-20T02:28:20.685Z,87.52
2016-09-20T02:29:01.226Z,87.9
2016-09-20T02:29:41.768Z,87.62
2016-09-20T02:30:22.319Z,87.9
2016-09-20T02:31:02.850Z,87.81
2016-09-20T02:31:43.386Z,87.81
2016-09-20T02:32:23.933Z,87.71
2016-09-20T02:33:04.474Z,87.71
2016-09-20T02:33:45.015Z,87.52
2016-09-20T02:34:25.556Z,87.52
2016-09-20T02:35:06.099Z,87.81
2016-09-20T02:35:46.639Z,87.81
2016-09-20T02:36:27.186Z,87.62
2016-09-20T02:37:07.732Z,87.52
2016-09-20T02:37:48.277Z,87.81
2016-09-20T02:38:28.816Z,87.71
2016-09-20T02:39:09.363Z,87.81
2016-09-20T02:39:49.898Z,88
2016-09-20T02:40:30.446Z,88.09
2016-09-20T02:41:10.980Z,88.19
2016-09-20T02:41:51.537Z,88.19
2016-09-20T02:42:32.079Z,88.48
2016-09-20T02:43:12.617Z,88.48
2016-09-20T02:43:53.159Z,88.29
2016-09-20T02:44:33.711Z,88.19
2016-09-20T02:45:14.261Z,88.38
2016-09-20T02:45:54.807Z,88
2016-09-20T02:46:35.351Z,88.09
2016-09-20T02:47:15.897Z,88
2016-09-20T02:47:56.440Z,88.19
2016-09-20T02:48:36.981Z,88.19
2016-09-20T02:49:17.525Z,88.19
2016-09-20T02:49:58.073Z,87.9
2016-09-20T02:50:38.618Z,88.09
2016-09-20T02:51:19.156Z,88.09
2016-09-20T02:51:59.701Z,88.19
2016-09-20T02:52:40.237Z,88.19
2016-09-20T02:53:20.790Z,88
2016-09-20T02:54:01.336Z,88.38
2016-09-20T02:54:41.875Z,88.29
2016-09-20T02:55:22.418Z,88.19
2016-09-20T02:56:02.966Z,88.48
2016-09-20T02:56:43.518Z,88.19
2016-09-20T02:57:24.062Z,88.29
2016-09-20T02:58:04.611Z,88.48
2016-09-20T02:58:45.160Z,88.57
2016-09-20T02:59:25.707Z,88.48
2016-09-20T03:00:06.252Z,88.67
2016-09-20T03:00:46.791Z,88.19
2016-09-20T03:01:27.339Z,88.67
2016-09-20T03:02:07.880Z,88.67
2016-09-20T03:02:48.424Z,88
2016-09-20T03:03:28.963Z,88.19
2016-09-20T03:04:09.511Z,88.19
2016-09-20T03:04:50.047Z,88.57
2016-09-20T03:05:30.591Z,88
2016-09-20T03:06:11.132Z,88.76
2016-09-20T03:06:51.678Z,88.57
2016-09-20T03:07:32.211Z,88.57
2016-09-20T03:08:12.758Z,88.38
2016-09-20T03:08:53.302Z,88.57
2016-09-20T03:09:33.851Z,88.57
2016-09-20T03:10:14.408Z,88.29
2016-09-20T03:10:54.945Z,88.48
2016-09-20T03:11:35.496Z,88.48
2016-09-20T03:12:16.030Z,88.48
2016-09-20T03:12:56.580Z,88.76
2016-09-20T03:13:37.118Z,88.09
2016-09-20T03:14:17.658Z,88.38
2016-09-20T03:14:58.202Z,88.09
2016-09-20T03:15:38.740Z,88.19
2016-09-20T03:16:19.264Z,88.29
2016-09-20T03:16:59.802Z,88
2016-09-20T03:17:40.341Z,88.19
2016-09-20T03:18:20.876Z,88.19
2016-09-20T03:19:01.430Z,88.09
2016-09-20T03:19:42.049Z,88.38
2016-09-20T03:20:22.595Z,88.38
2016-09-20T03:21:03.145Z,88.38
2016-09-20T03:21:43.685Z,88.29
2016-09-20T03:22:24.237Z,88.29
2016-09-20T03:23:04.783Z,88.19
2016-09-20T03:23:45.329Z,87.9
2016-09-20T03:24:25.865Z,88.19
2016-09-20T03:25:06.402Z,88.19
2016-09-20T03:25:46.943Z,88.09
2016-09-20T03:26:27.495Z,87.62
2016-09-20T03:27:08.031Z,87.52
2016-09-20T03:27:48.573Z,87.71
2016-09-20T03:28:29.113Z,87.52
2016-09-20T03:29:09.658Z,87.81
2016-09-20T03:29:50.205Z,87.71
2016-09-20T03:30:30.754Z,87.81
2016-09-20T03:31:11.306Z,87.71
2016-09-20T03:31:51.856Z,87.81
2016-09-20T03:32:32.403Z,87.81
2016-09-20T03:33:12.943Z,87.81
2016-09-20T03:33:53.485Z,87.71
2016-09-20T03:34:34.039Z,87.81
2016-09-20T03:35:14.578Z,87.71
2016-09-20T03:35:55.130Z,87.71
2016-09-20T03:36:35.672Z,87.71
2016-09-20T03:37:16.210Z,88
2016-09-20T03:37:56.735Z,88
2016-09-20T03:38:37.283Z,87.81
2016-09-20T03:39:17.822Z,87.71
2016-09-20T03:39:58.365Z,87.81
2016-09-20T03:40:38.912Z,87.43
2016-09-20T03:41:19.457Z,87.33
2016-09-20T03:41:59.986Z,87.43
2016-09-20T03:42:40.529Z,87.52
2016-09-20T03:43:21.082Z,87.33
2016-09-20T03:44:01.742Z,87.23
2016-09-20T03:44:42.290Z,87.33
2016-09-20T03:45:22.835Z,87.43
2016-09-20T03:46:03.375Z,87.43
2016-09-20T03:46:43.916Z,87.23
2016-09-20T03:47:24.590Z,87.43
2016-09-20T03:48:05.243Z,87.43
2016-09-20T03:48:45.853Z,87.23
2016-09-20T03:49:26.376Z,87.43
2016-09-20T03:50:06.931Z,87.52
2016-09-20T03:50:47.483Z,87.52
2016-09-20T03:51:28.027Z,87.33
2016-09-20T03:52:08.579Z,88
2016-09-20T03:52:49.125Z,87.81
2016-09-20T03:53:29.679Z,87.81
2016-09-20T03:54:10.465Z,88
2016-09-20T03:54:51.006Z,87.71
2016-09-20T03:55:31.558Z,87.71
2016-09-20T03:56:12.095Z,87.71
2016-09-20T03:56:52.636Z,87.43
2016-09-20T03:57:33.242Z,88.09
2016-09-20T03:58:13.850Z,88.38
2016-09-20T03:58:54.556Z,88.48
2016-09-20T03:59:35.094Z,88.38
2016-09-20T04:00:15.638Z,88.09
2016-09-20T04:00:56.178Z,88.29
2016-09-20T04:01:36.726Z,88.09
2016-09-20T04:02:17.278Z,88.09
2016-09-20T04:02:57.820Z,88.09
2016-09-20T04:03:38.367Z,88
2016-09-20T04:04:18.912Z,88.29
2016-09-20T04:04:59.459Z,88.09
2016-09-20T04:05:40.000Z,88.57
2016-09-20T04:06:20.544Z,88.48
2016-09-20T04:07:01.090Z,88.48
2016-09-20T04:07:41.631Z,88.48
2016-09-20T04:08:22.282Z,88.57
2016-09-20T04:09:02.832Z,88.57
2016-09-20T04:09:43.378Z,88.48
2016-09-20T04:10:23.958Z,88.48
2016-09-20T04:11:04.505Z,88.57
2016-09-20T04:11:45.136Z,88.57
2016-09-20T04:12:25.675Z,88.29
2016-09-20T04:13:06.217Z,88.57
2016-09-20T04:13:46.747Z,88.57
2016-09-20T04:14:27.293Z,88.29
2016-09-20T04:15:07.827Z,88.29
2016-09-20T04:15:48.375Z,88.48
2016-09-20T04:16:28.937Z,88.67
2016-09-20T04:17:09.471Z,88.67
2016-09-20T04:17:50.028Z,88.48
2016-09-20T04:18:30.571Z,88.67
2016-09-20T04:19:11.128Z,88.67
2016-09-20T04:19:51.672Z,88.48
2016-09-20T04:20:32.217Z,88.48
2016-09-20T04:21:12.770Z,88.48
2016-09-20T04:21:53.310Z,88.48
2016-09-20T04:22:33.854Z,88.48
2016-09-20T04:23:14.403Z,88.38
2016-09-20T04:23:54.932Z,88.86
2016-09-20T04:24:35.475Z,88.57
2016-09-20T04:25:16.019Z,88.38
2016-09-20T04:25:56.589Z,88.67
2016-09-20T04:26:37.131Z,88.29
2016-09-20T04:27:17.675Z,88.29
2016-09-20T04:27:58.228Z,88.57
2016-09-20T04:28:38.769Z,88.48
2016-09-20T04:29:19.312Z,88.57
2016-09-20T04:29:59.861Z,88.19
2016-09-20T04:30:40.404Z,88.38
2016-09-20T04:31:20.942Z,88.57
2016-09-20T04:32:01.492Z,88.29
2016-09-20T04:32:42.034Z,88.48
2016-09-20T04:33:22.583Z,88.48
2016-09-20T04:34:03.124Z,88.57
2016-09-20T04:34:43.667Z,88.48
2016-09-20T04:35:24.216Z,88.76
2016-09-20T04:36:04.758Z,88.57
2016-09-20T04:36:45.301Z,88.76
2016-09-20T04:37:25.837Z,88.48
2016-09-20T04:38:06.372Z,88.57
2016-09-20T04:38:46.919Z,88.57
2016-09-20T04:39:27.453Z,88.57
2016-09-20T04:40:07.994Z,88.57
2016-09-20T04:40:48.549Z,88.19
2016-09-20T04:41:29.095Z,88.19
2016-09-20T04:42:09.637Z,88.19
2016-09-20T04:42:50.180Z,88.09
2016-09-20T04:43:30.725Z,88.57
2016-09-20T04:44:11.273Z,88.29
2016-09-20T04:44:51.813Z,88.48
2016-09-20T04:45:32.349Z,88
2016-09-20T04:46:12.899Z,88
2016-09-20T04:46:53.432Z,88.19
2016-09-20T04:47:33.971Z,88.76
2016-09-20T04:48:14.519Z,88.57
2016-09-20T04:48:55.065Z,88.57
2016-09-20T04:49:35.599Z,88.57
2016-09-20T04:50:16.140Z,88.57
2016-09-20T04:50:56.689Z,88.48
2016-09-20T04:51:37.230Z,88.48
2016-09-20T04:52:17.760Z,88.38
2016-09-20T04:52:58.307Z,88.29
2016-09-20T04:53:38.852Z,88.48
2016-09-20T04:54:19.397Z,88.09
2016-09-20T04:54:59.942Z,88.09
2016-09-20T04:55:40.475Z,88
2016-09-20T04:56:21.013Z,88.19
2016-09-20T04:57:01.555Z,88.38
2016-09-20T04:57:42.097Z,88.19
2016-09-20T04:58:22.638Z,88.19
2016-09-20T04:59:03.169Z,88
2016-09-20T04:59:43.723Z,88
2016-09-20T05:00:24.264Z,88.76
2016-09-20T05:01:04.798Z,88
2016-09-20T05:01:45.349Z,88.48
2016-09-20T05:02:25.885Z,88.57
2016-09-20T05:03:06.430Z,88.48
2016-09-20T05:03:46.975Z,88.48
2016-09-20T05:04:27.538Z,88.38
2016-09-20T05:05:08.076Z,88
2016-09-20T05:05:48.607Z,88.19
2016-09-20T05:06:29.153Z,88.19
2016-09-20T05:07:09.697Z,88.57
2016-09-20T05:07:50.245Z,88.29
2016-09-20T05:08:30.793Z,88.57
2016-09-20T05:09:11.339Z,88.19
2016-09-20T05:09:51.880Z,88.19
2016-09-20T05:10:32.426Z,88.76
2016-09-20T05:11:12.965Z,88.48
2016-09-20T05:11:53.503Z,88.76
2016-09-20T05:12:34.054Z,88.57
2016-09-20T05:13:14.607Z,88.48
2016-09-20T05:13:55.147Z,88.48
2016-09-20T05:14:35.690Z,88.48
2016-09-20T05:15:16.238Z,88.57
2016-09-20T05:15:56.782Z,88.76
2016-09-20T05:16:37.338Z,88
2016-09-20T05:17:17.909Z,88.38
2016-09-20T05:17:58.470Z,88.48
2016-09-20T05:18:39.034Z,88.38
2016-09-20T05:19:19.576Z,88.19
2016-09-20T05:20:00.105Z,88.19
2016-09-20T05:20:40.646Z,88.19
2016-09-20T05:21:21.195Z,88.19
2016-09-20T05:22:01.743Z,88.67
2016-09-20T05:22:42.288Z,88.67
2016-09-20T05:23:22.839Z,88.67
2016-09-20T05:24:03.375Z,88.48
2016-09-20T05:24:43.922Z,88.38
2016-09-20T05:25:24.456Z,88.57
2016-09-20T05:26:04.994Z,88.48
2016-09-20T05:26:45.538Z,88.57
2016-09-20T05:27:26.079Z,88.57
2016-09-20T05:28:06.621Z,88.38
2016-09-20T05:28:47.158Z,88.48
2016-09-20T05:29:27.703Z,88.19
2016-09-20T05:30:08.276Z,88.57
2016-09-20T05:30:48.816Z,88.57
2016-09-20T05:31:29.373Z,88.57
2016-09-20T05:32:09.906Z,88.57
2016-09-20T05:32:50.456Z,88.67
2016-09-20T05:33:31.002Z,88.86
2016-09-20T05:34:11.562Z,88.67
2016-09-20T05:34:52.110Z,88.48
2016-09-20T05:35:32.659Z,88.29
2016-09-20T05:36:13.197Z,88.67
2016-09-20T05:36:53.740Z,88.95
2016-09-20T05:37:35.179Z,88.95
2016-09-20T05:38:15.759Z,88.86
2016-09-20T05:38:56.312Z,89.05
2016-09-20T05:39:36.931Z,89.05
2016-09-20T05:40:17.476Z,88.86
2016-09-20T05:40:58.021Z,89.24
2016-09-20T05:41:38.559Z,89.15
2016-09-20T05:42:19.104Z,89.05
2016-09-20T05:42:59.652Z,89.15
2016-09-20T05:43:40.192Z,89.05
2016-09-20T05:44:20.940Z,89.05
2016-09-20T05:45:01.488Z,88.86
2016-09-20T05:45:42.070Z,89.15
2016-09-20T05:46:22.605Z,88.86
2016-09-20T05:47:03.153Z,88.95
2016-09-20T05:47:43.703Z,88.95
2016-09-20T05:48:24.251Z,89.15
2016-09-20T05:49:04.798Z,88.95
2016-09-20T05:49:45.542Z,89.05
2016-09-20T05:50:26.116Z,88.95
2016-09-20T05:51:06.662Z,89.05
2016-09-20T05:51:47.213Z,88.67
2016-09-20T05:52:27.746Z,88.67
2016-09-20T05:53:08.288Z,88.95
2016-09-20T05:53:48.840Z,88.67
2016-09-20T05:54:29.451Z,88.67
2016-09-20T05:55:10.000Z,88.76
2016-09-20T05:55:50.538Z,88.67
2016-09-20T05:56:31.090Z,89.81
2016-09-20T05:57:11.620Z,89.43
2016-09-20T05:57:52.167Z,88.67
2016-09-20T05:58:32.706Z,89.05
2016-09-20T05:59:13.257Z,88.95
2016-09-20T05:59:53.800Z,88.67
2016-09-20T06:00:34.345Z,89.05
2016-09-20T06:01:14.887Z,88.95
2016-09-20T06:01:55.427Z,88.95
2016-09-20T06:02:35.981Z,89.15
2016-09-20T06:03:16.554Z,89.05
2016-09-20T06:03:57.100Z,89.05
2016-09-20T06:04:37.674Z,88.95
2016-09-20T06:05:18.223Z,88.95
2016-09-20T06:05:58.759Z,88.95
2016-09-20T06:06:39.296Z,89.05
2016-09-20T06:07:19.836Z,88.95
2016-09-20T06:08:00.376Z,88.76
2016-09-20T06:08:40.925Z,88.86
2016-09-20T06:09:21.437Z,89.05
2016-09-20T06:10:01.986Z,88.86
2016-09-20T06:10:42.523Z,88.86
2016-09-20T06:11:23.075Z,88.95
2016-09-20T06:12:03.622Z,88.76
2016-09-20T06:12:44.172Z,88.95
2016-09-20T06:13:24.719Z,88.91
2016-09-20T06:14:05.249Z,89.15
2016-09-20T06:14:45.797Z,89.24
2016-09-20T06:15:26.341Z,88.86
2016-09-20T06:16:06.870Z,88.76
2016-09-20T06:16:47.410Z,88.95
2016-09-20T06:17:27.953Z,88.81
2016-09-20T06:18:08.494Z,88.76
2016-09-20T06:18:49.041Z,88.86
2016-09-20T06:19:29.592Z,89.15
2016-09-20T06:20:10.143Z,88.76
2016-09-20T06:20:50.689Z,88.76
2016-09-20T06:21:31.234Z,88.95
2016-09-20T06:22:11.772Z,89.05
2016-09-20T06:22:52.372Z,88.95
2016-09-20T06:23:32.964Z,89.05
2016-09-20T06:24:13.511Z,88.95
2016-09-20T06:24:54.056Z,88.95
2016-09-20T06:25:34.591Z,89.05
2016-09-20T06:26:15.128Z,88.76
2016-09-20T06:26:55.672Z,88.86
2016-09-20T06:27:36.213Z,88.76
2016-09-20T06:28:16.774Z,88.86
2016-09-20T06:28:57.316Z,88.86
2016-09-20T06:29:37.858Z,89.24
2016-09-20T06:30:18.408Z,89.15
2016-09-20T06:30:58.955Z,89.15
2016-09-20T06:31:39.508Z,89.05
2016-09-20T06:32:20.048Z,89.15
2016-09-20T06:33:00.596Z,88.95
2016-09-20T06:33:41.148Z,89.15
2016-09-20T06:34:21.724Z,88.67
2016-09-20T06:35:02.284Z,89.81
2016-09-20T06:35:42.840Z,88.86
2016-09-20T06:36:23.405Z,89.62
2016-09-20T06:37:03.928Z,89.53
2016-09-20T06:37:44.470Z,89.81
2016-09-20T06:38:25.017Z,89.81
2016-09-20T06:39:05.571Z,89.15
2016-09-20T06:39:46.117Z,89.24
2016-09-20T06:40:26.662Z,88.67
2016-09-20T06:41:07.210Z,88.67
2016-09-20T06:41:47.757Z,88.67
2016-09-20T06:42:28.300Z,88.67
2016-09-20T06:43:08.841Z,89.05
2016-09-20T06:43:49.403Z,88.95
2016-09-20T06:44:29.951Z,89.15
2016-09-20T06:45:10.494Z,88.95
2016-09-20T06:45:51.035Z,88.95
2016-09-20T06:46:31.562Z,89.15
2016-09-20T06:47:12.104Z,89.15
2016-09-20T06:47:52.645Z,88.95
2016-09-20T06:48:33.196Z,89.15
2016-09-20T06:49:13.731Z,89.15
2016-09-20T06:49:54.281Z,89.05
2016-09-20T06:50:34.828Z,89.05
2016-09-20T06:51:15.365Z,89.24
2016-09-20T06:51:55.907Z,88.67
2016-09-20T06:52:36.457Z,88.19
2016-09-20T06:53:16.997Z,88.95
2016-09-20T06:53:57.545Z,88.67
2016-09-20T06:54:38.096Z,88.86
2016-09-20T06:55:18.633Z,88.19
2016-09-20T06:55:59.174Z,88.76
2016-09-20T06:56:39.733Z,88.48
2016-09-20T06:57:20.273Z,88.19
2016-09-20T06:58:00.813Z,88.95
2016-09-20T06:58:41.359Z,88.95
2016-09-20T06:59:21.964Z,88.95
2016-09-20T07:00:02.508Z,88.86
2016-09-20T07:00:43.042Z,88.95
2016-09-20T07:01:23.863Z,89.24
2016-09-20T07:02:04.134Z,88.95
2016-09-20T07:02:44.665Z,88.48
2016-09-20T07:03:25.215Z,88.67
2016-09-20T07:04:05.766Z,88.86
2016-09-20T07:04:46.303Z,88.09
2016-09-20T07:05:26.841Z,88.48
2016-09-20T07:06:07.390Z,88.29
2016-09-20T07:06:47.934Z,88.29
2016-09-20T07:07:28.484Z,88.29
2016-09-20T07:08:09.016Z,88.57
2016-09-20T07:08:49.575Z,88.57
2016-09-20T07:09:30.114Z,88.57
2016-09-20T07:10:10.662Z,87.9
2016-09-20T07:10:51.202Z,88.19
2016-09-20T07:11:31.734Z,88.38
2016-09-20T07:12:12.278Z,88.13
2016-09-20T07:12:52.822Z,88.29
2016-09-20T07:13:33.358Z,88.19
2016-09-20T07:14:13.904Z,88.19
2016-09-20T07:14:54.453Z,88.29
2016-09-20T07:15:35.006Z,88.23
2016-09-20T07:16:15.545Z,88.09
2016-09-20T07:16:56.107Z,88.09
2016-09-20T07:17:36.658Z,87.62
2016-09-20T07:18:17.210Z,87.76
2016-09-20T07:18:57.761Z,87.85
2016-09-20T07:19:38.304Z,87.56
2016-09-20T07:20:18.839Z,87.66
2016-09-20T07:20:59.382Z,87.85
2016-09-20T07:21:39.925Z,87.76
2016-09-20T07:22:20.467Z,87.56
2016-09-20T07:23:01.006Z,87.47
2016-09-20T07:23:41.551Z,87.56
2016-09-20T07:24:22.086Z,87.08
2016-09-20T07:25:02.637Z,86.9
2016-09-20T07:25:43.179Z,86.99
2016-09-20T07:26:23.718Z,86.7
2016-09-20T07:27:04.271Z,86.9
2016-09-20T07:27:44.815Z,86.9
2016-09-20T07:28:25.362Z,86.7
2016-09-20T07:29:05.906Z,87.47
2016-09-20T07:29:46.454Z,86.7
2016-09-20T07:30:26.996Z,86.7
2016-09-20T07:31:07.528Z,86.51
2016-09-20T07:31:48.075Z,86.41
2016-09-20T07:32:28.615Z,86.22
2016-09-20T07:33:09.160Z,86.22
2016-09-20T07:33:49.695Z,86.27
2016-09-20T07:34:30.240Z,86.17
2016-09-20T07:35:10.777Z,86.51
2016-09-20T07:35:51.327Z,86.65
2016-09-20T07:36:31.876Z,86.51
2016-09-20T07:37:12.427Z,86.55
2016-09-20T07:37:52.971Z,86.27
2016-09-20T07:38:33.517Z,86.65
2016-09-20T07:39:14.051Z,86.46
2016-09-20T07:39:54.597Z,85.79
2016-09-20T07:40:35.137Z,86.17
2016-09-20T07:41:15.683Z,85.79
2016-09-20T07:41:56.225Z,86.08
2016-09-20T07:42:36.768Z,85.98
2016-09-20T07:43:17.322Z,85.6
2016-09-20T07:43:57.872Z,85.6
2016-09-20T07:44:38.422Z,85.41
2016-09-20T07:45:18.967Z,85.41
2016-09-20T07:45:59.509Z,85.21
2016-09-20T07:46:40.061Z,85.21
2016-09-20T07:48:34.076Z,85.6
2016-09-20T07:49:14.661Z,85.69
2016-09-20T07:49:55.212Z,85.5
2016-09-20T07:50:35.756Z,85.79
2016-09-20T07:51:16.303Z,85.79
2016-09-20T07:51:56.852Z,85.69
2016-09-20T07:52:37.395Z,85.6
2016-09-20T07:53:17.943Z,85.21
2016-09-20T07:53:58.495Z,84.64
2016-09-20T07:54:39.047Z,84.74
2016-09-20T07:55:19.600Z,84.64
2016-09-20T07:56:00.135Z,84.55
2016-09-20T07:56:40.683Z,85.02
2016-09-20T07:57:21.219Z,84.45
2016-09-20T07:58:01.765Z,84.64
2016-09-20T07:58:42.310Z,84.64
2016-09-20T07:59:22.848Z,84.83
2016-09-20T08:00:03.393Z,84.16
2016-09-20T08:00:43.944Z,84.45
2016-09-20T08:01:24.476Z,83.97
2016-09-20T08:02:05.024Z,84.16
2016-09-20T08:02:45.574Z,84.3
2016-09-20T08:03:26.118Z,83.44
2016-09-20T08:04:06.672Z,83.63
2016-09-20T08:04:47.206Z,83.82
2016-09-20T08:05:27.750Z,83.72
2016-09-20T08:06:08.306Z,83.63
2016-09-20T08:06:48.849Z,83.63
2016-09-20T08:07:29.400Z,83.92
2016-09-20T08:08:09.927Z,83.82
2016-09-20T08:08:50.469Z,83.72
2016-09-20T08:09:31.011Z,83.34
2016-09-20T08:10:11.553Z,82.96
2016-09-20T08:10:52.093Z,83.05
2016-09-20T08:11:32.638Z,83.53
2016-09-20T08:12:13.185Z,83.25
2016-09-20T08:12:53.734Z,83.25
2016-09-20T08:13:34.286Z,83.09
2016-09-20T08:14:14.827Z,82.67
2016-09-20T08:14:55.351Z,83
2016-09-20T08:15:35.901Z,83.09
2016-09-20T08:16:16.446Z,82.14
2016-09-20T08:16:56.983Z,81.95
2016-09-20T08:17:37.532Z,82.14
2016-09-20T08:18:18.068Z,81.46
2016-09-20T08:18:58.610Z,81.46
2016-09-20T08:19:39.140Z,81.56
2016-09-20T08:20:19.676Z,82.04
2016-09-20T08:21:00.221Z,81.37
2016-09-20T08:21:40.765Z,81.75
2016-09-20T08:22:21.287Z,81.18
2016-09-20T08:23:01.832Z,81.37
2016-09-20T08:23:42.367Z,81.66
2016-09-20T08:24:22.914Z,81.66
2016-09-20T08:25:03.452Z,81.08
2016-09-20T08:25:43.996Z,81.08
2016-09-20T08:26:24.526Z,80.99
2016-09-20T08:27:05.061Z,80.89
2016-09-20T08:27:45.592Z,81.18
2016-09-20T08:28:26.127Z,81.18
2016-09-20T08:29:06.687Z,81.08
2016-09-20T08:29:47.230Z,81.08
2016-09-20T08:30:27.778Z,81.12
2016-09-20T08:31:08.313Z,80.51
2016-09-20T08:31:48.853Z,80.89
2016-09-20T08:32:29.377Z,81.02
2016-09-20T08:33:09.922Z,81.02
2016-09-20T08:33:50.466Z,80.83
2016-09-20T08:34:31.019Z,80.74
2016-09-20T08:35:11.574Z,80.64
2016-09-20T08:35:52.127Z,80.64
2016-09-20T08:36:32.675Z,80.35
2016-09-20T08:37:13.212Z,80.74
2016-09-20T08:37:53.749Z,80.45
2016-09-20T08:38:34.297Z,80.35
2016-09-20T08:39:14.836Z,79.88
2016-09-20T08:39:55.374Z,80.16
2016-09-20T08:40:35.910Z,79.49
2016-09-20T08:41:16.461Z,79.68
2016-09-20T08:41:57.013Z,79.59
2016-09-20T08:42:37.563Z,79.3
2016-09-20T08:43:18.098Z,79.21
2016-09-20T08:43:58.647Z,79.01
2016-09-20T08:44:39.161Z,79.21
2016-09-20T08:45:19.700Z,78.53
2016-09-20T08:46:00.239Z,78.53